Aalter, Belgium
Current Conditions -  °F | °C
As of 10:25 AM on Thursday 18 Dec 2014 (Local Time) from EHFS Reporting Station
Overcast Overcast  
Wind Chill: 11°   Ceiling: 1500
Heat Index: 11°   Visibility: 6mi
Dew Point: 10°   Wind: 25mph
Humidity: 94%   Direction: 230°SW
Pressure: 29.83"   Gusts: NA
Location:  51.09°N, 3.45°E
Report Text: EHFS 180925Z AUTO 23022KT 9999 FEW009/// SCT011/// OVC015///11/10 Q1010
Loading
Personal Weather Stations






























Interactive Weather Map New forecast layout! Learn more

10-Day Weather Forecast

Advertisements
Track Severe Weather on mobile